William P Hobby Airport
KHOU : now visible

Airfield :











YOU CAN JOIN US ON...

 
LOGIN :

Register | Disclaimer

   EN    FR    IT 

 









Legend :    VFR   Marginal VFR   IFR   Intensive IFR   Very Intensive IFR
Visi :
Ceiling :
>= 8 km
>= 3000ft
5 to 8 km
1000 to 3000 ft
1500m to 5 km
500 to 1000 ft
800 to 1500m
200 to 500 ft
< 800m
< 200 ft
Symbols :   Thunderstorms  Fog  Heavy snow  Heavy precipitations  Wind > 20 kt







- Airport Elevation : 46 ft
- IATA code : HOU


KHOU - William P Hobby

CURRENT METAR :
  • 261453Z 16012G19KT 10SM SCT032 SCT250 29/20 A3008 RMK AO2 SLP192 T02890200 51009 $

EXPIRED METARs :
  • 261353Z 15010KT 10SM FEW035 FEW250 27/21 A3008 RMK AO2 SLP189 T02720211 $
  • 261253Z 14005KT 10SM FEW029 25/21 A3007 RMK AO2 SLP187 T02500211 $

TAF KHOU
Valid from the 26 at 15:00 until the 27 at 12:00 UTC


261446Z 2615/2712 16011G17KT P6SM SCT025 SCT035
FM262200 14013KT P6SM SCT040
FM270200 14007KT P6SM SCT020
KZHU FIR / North America



MET'MAP, your aeronautical weather chart ! - Copyright ORBIFLY December 2007 - Disclaimer

ORBIFLY MET'MAP TEAM :

Programming & Development : Alexandra Zaïnal
Concept & Development : Baudouin d'Aumeries
Co-Development & Prog : Marc-Olivier Méhu
Technical & hardware support : Manuel Goepfert

Contact : metmap@orbifly.com




SOURCES & CREDITS :

   NOAA       Earth
Advisory